M I D A S
Marine Information and Data Acquisition System
Tripno 1085 of the Zeeleeuw from 2006-05-17 11:36:38 to 2006-05-17 14:26:43
Back to CruiseResearch ActivitiesStationsMapUnderway DataData graphs

EquipmentUnitsComment
TimeDGPSUTC
LatitudeDGPSDM.mWGS84
LongitudeDGPSDM.mWGS84
HeadingGyrodeg 
SOGDGPSknotsSpeed over ground
COGDGPSdegCourse over ground
DepthEcho soundermeters200 kHz
Missing or incorrect values are displayed as -999
Navigation data collected by the RV Zeeleeuw from 2006-05-17 07:17:38 to 2006-05-17 14:41:29
Time Latitude Longitude Heading SOG COG Depth
2006-05-17 07:18:44 51°13.603 2°56.099 126.4 -999 60 -999
2006-05-17 07:19:43 51°13.603 2°56.099 126.5 -999 39 4.9
2006-05-17 07:20:44 51°13.604 2°56.099 126.7 -999 21 -999
2006-05-17 07:21:44 51°13.603 2°56.098 126.9 -999 335 -999
2006-05-17 07:22:42 51°13.603 2°56.098 126.9 -999 37 4.8
2006-05-17 07:23:44 51°13.603 2°56.098 126.9 -999 198 4.8
2006-05-17 07:24:44 51°13.603 2°56.099 126.8 -999 264 4.7
2006-05-17 07:25:44 51°13.602 2°56.099 121.7 -999 220 4.9
2006-05-17 07:26:41 51°13.601 2°56.098 111.3 0.1 196 4.7
2006-05-17 07:27:44 51°13.608 2°56.065 110.2 2.6 290 6.1
2006-05-17 07:28:44 51°13.628 2°55.975 115.7 3.9 292 -999
2006-05-17 07:29:44 51°13.658 2°55.886 127.9 3.9 303 -999
2006-05-17 07:30:44 51°13.697 2°55.799 127 3.7 305 -999
2006-05-17 07:31:44 51°13.719 2°55.742 107.1 0.7 307 9.9
2006-05-17 07:32:42 51°13.726 2°55.754 45 1 232 9.9
2006-05-17 07:33:44 51°13.714 2°55.733 18.6 0.9 352 -999
2006-05-17 07:34:44 51°13.759 2°55.696 334.5 4.7 330 9.5
2006-05-17 07:35:43 51°13.845 2°55.618 336.1 6.6 331 9.7
2006-05-17 07:36:44 51°13.936 2°55.546 341.7 5.7 336 9.8
2006-05-17 07:37:44 51°14.019 2°55.487 339.9 5.5 336 9.9
2006-05-17 07:38:43 51°14.116 2°55.422 342.5 7.1 336 10.7
2006-05-17 07:39:44 51°14.231 2°55.318 330.2 8.3 323 9.8
2006-05-17 07:40:44 51°14.325 2°55.142 310.9 9 305 9.7
2006-05-17 07:41:43 51°14.404 2°54.939 303.7 9.5 296 9.5
2006-05-17 07:42:43 51°14.466 2°54.663 293.6 12.3 284 9.6
2006-05-17 07:43:42 51°14.533 2°54.337 299.8 13.7 291 10.6
2006-05-17 07:44:42 51°14.618 2°53.999 301.2 13.8 291 10.2
2006-05-17 07:45:42 51°14.69 2°53.652 297.1 13.6 290 8.9
2006-05-17 07:46:43 51°14.77 2°53.309 289.7 13.6 280 9
2006-05-17 07:47:43 51°14.747 2°52.952 265.1 13.6 259 8.3
2006-05-17 07:48:44 51°14.72 2°52.585 274.3 13.8 268 8.4
2006-05-17 07:49:44 51°14.688 2°52.224 264.9 13.8 259 8.5
2006-05-17 07:50:43 51°14.662 2°51.867 275.1 13.8 269 8.8
2006-05-17 07:51:44 51°14.641 2°51.494 265.6 14 259 9.1
2006-05-17 07:52:44 51°14.596 2°51.129 267.8 14.1 262 9.3
2006-05-17 07:53:43 51°14.57 2°50.764 267.3 14.1 260 9.5
2006-05-17 07:54:43 51°14.527 2°50.396 266.3 14.2 260 9.8
2006-05-17 07:55:44 51°14.482 2°50.022 258.7 14.1 252 10.3
2006-05-17 07:56:43 51°14.406 2°49.673 256.5 14.2 251 10.4
2006-05-17 07:57:44 51°14.336 2°49.307 255.9 14.2 250 10.3
2006-05-17 07:58:42 51°14.259 2°48.964 258.3 14.2 253 10.4
2006-05-17 07:59:43 51°14.163 2°48.616 246.2 14.1 242 10.4
2006-05-17 08:00:41 51°14.077 2°48.35 247.9 8.8 244 10.4
2006-05-17 08:01:42 51°14.025 2°48.18 245.7 6 243 10.4
2006-05-17 08:02:42 51°13.985 2°48.068 237.4 3.3 240 10.5
2006-05-17 08:03:44 51°13.976 2°48.043 269.1 0.4 220 -999
2006-05-17 08:04:42 51°13.97 2°48.033 277.2 0.6 233 10.4
2006-05-17 08:05:44 51°13.964 2°48.019 280.1 0.6 248 10.5
2006-05-17 08:06:43 51°13.959 2°48.003 287.1 0.7 246 10.5
2006-05-17 08:07:44 51°13.954 2°47.984 292.2 0.8 251 10.5
2006-05-17 08:08:43 51°13.949 2°47.963 296.1 1 247 10.4
2006-05-17 08:09:44 51°13.945 2°47.939 298.3 1 253 10.4
2006-05-17 08:10:43 51°13.941 2°47.914 300.4 1 256 10.4
2006-05-17 08:11:44 51°13.939 2°47.883 302 1.7 273 10.4
2006-05-17 08:12:42 51°13.99 2°47.79 345.4 6.4 333 10.4
2006-05-17 08:13:42 51°14.067 2°47.781 36.5 3.4 23 10.5
2006-05-17 08:14:42 51°14.106 2°47.832 58.8 3 50 10.5
2006-05-17 08:15:43 51°14.137 2°47.896 59.2 3 51 10.4
2006-05-17 08:16:42 51°14.171 2°47.955 54.7 3 45 10.5
2006-05-17 08:17:44 51°14.209 2°48.008 50.5 2.9 37 10.5
2006-05-17 08:18:43 51°14.244 2°48.059 56.5 2.9 47 10.4
2006-05-17 08:19:42 51°14.273 2°48.117 62.9 2.8 55 10.4
2006-05-17 08:20:44 51°14.299 2°48.182 64 2.8 58 10.5
2006-05-17 08:21:43 51°14.325 2°48.242 60.3 2.8 52 10.5
2006-05-17 08:22:41 51°14.354 2°48.296 58.6 2.8 51 10.6
2006-05-17 08:23:43 51°14.385 2°48.356 59.6 2.8 51 10.6
2006-05-17 08:24:43 51°14.415 2°48.414 58.7 2.9 50 10.7
2006-05-17 08:25:44 51°14.446 2°48.475 59.8 2.9 51 10.8
2006-05-17 08:26:42 51°14.475 2°48.534 60.3 2.9 50 10.8
2006-05-17 08:27:42 51°14.503 2°48.596 62.8 2.9 55 10.9
2006-05-17 08:28:41 51°14.529 2°48.66 65.3 2.9 57 10.9
2006-05-17 08:29:43 51°14.553 2°48.728 64.6 2.9 60 10.9
2006-05-17 08:30:41 51°14.578 2°48.789 63.8 2.9 58 11
2006-05-17 08:31:42 51°14.603 2°48.854 64.8 2.9 59 11.1
2006-05-17 08:32:42 51°14.628 2°48.918 64.6 2.9 56 11.1
2006-05-17 08:33:43 51°14.655 2°48.988 65 3.1 58 11.1
2006-05-17 08:34:43 51°14.683 2°49.061 65.2 3.2 61 11.2
2006-05-17 08:35:43 51°14.709 2°49.135 66.8 3.2 63 11.2
2006-05-17 08:36:44 51°14.734 2°49.21 66.5 3.2 64 11.2
2006-05-17 08:37:43 51°14.759 2°49.284 66.5 3.2 61 11.2
2006-05-17 08:38:44 51°14.785 2°49.359 66.5 3.2 61 11.3
2006-05-17 08:39:43 51°14.809 2°49.43 66.6 3 59 11.3
2006-05-17 08:40:43 51°14.831 2°49.499 67.4 2.9 61 11.3
2006-05-17 08:41:43 51°14.854 2°49.565 64.2 2.9 59 11.3
2006-05-17 08:42:43 51°14.88 2°49.63 64 2.9 61 11.3
2006-05-17 08:43:44 51°14.908 2°49.694 60.9 2.9 56 11.3
2006-05-17 08:44:43 51°14.937 2°49.754 59.1 2.9 52 11.3
2006-05-17 08:45:44 51°14.968 2°49.814 58.7 3 50 11.3
2006-05-17 08:46:42 51°14.996 2°49.878 70.4 3.4 66 11.4
2006-05-17 08:47:43 51°15.004 2°49.978 95.6 3.9 105 11.4
2006-05-17 08:48:43 51°14.952 2°50.054 143.1 4.8 159 11.2
2006-05-17 08:49:43 51°14.868 2°50.046 192.2 5.4 203 11
2006-05-17 08:50:43 51°14.805 2°49.946 236.1 5.6 238 10.9
2006-05-17 08:51:42 51°14.763 2°49.82 240.4 4.9 239 11
2006-05-17 08:52:43 51°14.715 2°49.741 198.4 3.4 212 11
2006-05-17 08:53:44 51°14.674 2°49.699 188.4 2.6 214 10.9
2006-05-17 08:54:44 51°14.642 2°49.665 183.2 2.1 216 10.9
2006-05-17 08:55:41 51°14.615 2°49.638 170.8 2.2 200 10.8
2006-05-17 08:56:44 51°14.547 2°49.65 156.6 6.4 168 10.6
2006-05-17 08:57:44 51°14.418 2°49.696 164.2 8.7 173 10.3
2006-05-17 08:58:43 51°14.275 2°49.641 210.5 9.5 215 9.8
2006-05-17 08:59:44 51°14.164 2°49.46 235.2 8.2 235 9.5
2006-05-17 09:00:43 51°14.099 2°49.314 240.8 6.4 240 9.4
2006-05-17 09:01:44 51°14.087 2°49.159 287.6 5.5 278 9.7
2006-05-17 09:02:43 51°14.127 2°49.053 340.2 4.2 323 9.9
2006-05-17 09:03:44 51°14.18 2°49.031 23.9 2.8 3 10.2
2006-05-17 09:04:43 51°14.231 2°49.061 36.2 3.5 20 10.4
2006-05-17 09:05:43 51°14.282 2°49.082 29.8 3 12 10.3
2006-05-17 09:06:42 51°14.328 2°49.097 31.9 2.8 12 10.5
2006-05-17 09:07:42 51°14.371 2°49.121 43.6 2.6 30 10.5
2006-05-17 09:08:44 51°14.408 2°49.169 54 3 46 10.5
2006-05-17 09:09:44 51°14.442 2°49.226 55.6 2.9 45 10.6
2006-05-17 09:10:43 51°14.473 2°49.282 58.5 2.9 47 10.6
2006-05-17 09:11:44 51°14.504 2°49.341 57.8 2.8 50 10.7
2006-05-17 09:12:44 51°14.537 2°49.395 56 2.9 46 10.7
2006-05-17 09:13:43 51°14.569 2°49.448 56.9 2.8 46 10.8
2006-05-17 09:14:44 51°14.602 2°49.503 59.6 2.8 49 10.8
2006-05-17 09:15:44 51°14.631 2°49.56 61.5 2.8 51 10.9
2006-05-17 09:16:44 51°14.659 2°49.618 60.9 2.8 49 10.9
2006-05-17 09:17:42 51°14.688 2°49.672 59.5 2.8 50 11
2006-05-17 09:18:42 51°14.719 2°49.726 58.8 2.8 46 11
2006-05-17 09:19:44 51°14.75 2°49.784 63.1 2.8 55 11
2006-05-17 09:20:43 51°14.772 2°49.847 67 2.8 64 11
2006-05-17 09:21:43 51°14.795 2°49.913 64.7 2.8 60 11
2006-05-17 09:22:44 51°14.82 2°49.978 64.1 2.8 58 11
2006-05-17 09:23:44 51°14.844 2°50.042 63.8 2.9 57 11
2006-05-17 09:24:44 51°14.866 2°50.107 67.8 2.8 66 11
2006-05-17 09:25:43 51°14.876 2°50.179 78.7 2.9 81 11
2006-05-17 09:26:43 51°14.87 2°50.253 101.2 3.1 117 11
2006-05-17 09:27:43 51°14.826 2°50.321 134 4.4 151 10.9
2006-05-17 09:28:44 51°14.749 2°50.344 167.3 4.7 184 10.7
2006-05-17 09:29:44 51°14.677 2°50.298 206.9 4.8 217 10.6
2006-05-17 09:30:43 51°14.633 2°50.196 258.3 4.5 252 10.6
2006-05-17 09:31:43 51°14.634 2°50.091 311.6 3.6 287 10.7
2006-05-17 09:32:43 51°14.661 2°50.027 0.1 2.2 317 10.8
2006-05-17 09:33:44 51°14.681 2°49.995 16 1.4 313 10.9
2006-05-17 09:34:44 51°14.692 2°49.971 23.9 1 302 10.9
2006-05-17 09:35:43 51°14.7 2°49.95 32.3 1.1 341 10.9
2006-05-17 09:36:43 51°14.73 2°50.034 76 6.9 75 10.9
2006-05-17 09:37:44 51°14.771 2°50.286 73.6 11 72 10.7
2006-05-17 09:38:43 51°14.791 2°50.577 87.1 11.4 86 10.6
2006-05-17 09:39:43 51°14.809 2°50.878 85.4 11.4 86 10.2
2006-05-17 09:40:44 51°14.811 2°51.186 93.2 11.5 93 9.9
2006-05-17 09:41:43 51°14.808 2°51.484 89.9 11.4 91 9.6
2006-05-17 09:42:41 51°14.787 2°51.778 96 11.6 96 9.1
2006-05-17 09:43:44 51°14.771 2°52.098 92.5 11.5 93 8.8
2006-05-17 09:44:44 51°14.746 2°52.402 100 11.7 101 8.3
2006-05-17 09:45:43 51°14.727 2°52.702 91.7 11.7 94 8.2
2006-05-17 09:46:42 51°14.701 2°53.004 95 11.7 95 7.9
2006-05-17 09:47:43 51°14.685 2°53.318 99.7 11.8 102 7.9
2006-05-17 09:48:41 51°14.643 2°53.614 100.8 11.8 103 7.5
2006-05-17 09:49:43 51°14.61 2°53.942 95.6 12.2 95 10.1
2006-05-17 09:50:43 51°14.569 2°54.256 102 12 102 10.1
2006-05-17 09:51:43 51°14.526 2°54.564 105.9 12.1 107 9.7
2006-05-17 09:52:42 51°14.449 2°54.852 116.1 12 118 9.4
2006-05-17 09:53:43 51°14.338 2°55.123 130.1 11.3 128 5
2006-05-17 09:54:44 51°14.241 2°55.286 139.8 7.1 138 -999
2006-05-17 09:55:44 51°14.165 2°55.384 148.5 5.3 146 -999
2006-05-17 09:56:44 51°14.094 2°55.451 157 4.8 154 -999
2006-05-17 09:57:43 51°14.019 2°55.502 158.5 5.4 157 9.6
2006-05-17 09:58:42 51°13.924 2°55.566 158.3 6.6 156 9.5
2006-05-17 09:59:43 51°13.823 2°55.636 158.1 6.3 156 9.5
2006-05-17 10:00:43 51°13.74 2°55.714 143.5 5.5 140 9.5
2006-05-17 10:01:43 51°13.682 2°55.819 129.4 4.8 126 9
2006-05-17 10:02:43 51°13.647 2°55.91 124.1 3.6 120 8.2
2006-05-17 10:03:43 51°13.622 2°55.98 117.5 2.8 114 8.2
2006-05-17 10:04:44 51°13.606 2°56.052 105.3 2.6 100 8
2006-05-17 10:05:44 51°13.604 2°56.091 110.5 0.5 111 4.7
2006-05-17 10:06:43 51°13.602 2°56.096 129.8 0.2 95 4.5
2006-05-17 10:07:43 51°13.602 2°56.099 127.2 0.2 324 4.5
2006-05-17 10:08:43 51°13.602 2°56.097 128.4 -999 292 4.6
2006-05-17 10:09:43 51°13.602 2°56.098 127.3 -999 211 4.6
2006-05-17 10:10:41 51°13.603 2°56.098 125.5 0.1 60 4.6
2006-05-17 10:11:42 51°13.603 2°56.098 125.3 -999 37 4.6
2006-05-17 10:12:42 51°13.603 2°56.098 125.3 -999 106 4.6
2006-05-17 10:13:42 51°13.603 2°56.097 125.2 -999 49 4.6
2006-05-17 10:14:43 51°13.603 2°56.097 125 -999 37 4.6
2006-05-17 10:15:43 51°13.603 2°56.098 124.9 -999 80 4.5
2006-05-17 10:16:43 51°13.603 2°56.098 124.9 -999 67 4.6
2006-05-17 10:17:43 51°13.603 2°56.097 124.8 -999 48 4.6
2006-05-17 10:18:43 51°13.603 2°56.097 124.7 -999 64 4.5
2006-05-17 10:19:42 51°13.602 2°56.097 124.6 -999 57 4.5
2006-05-17 10:20:43 51°13.603 2°56.098 124.4 -999 58 4.5
2006-05-17 10:21:43 51°13.603 2°56.098 124.4 -999 31 4.5
2006-05-17 10:22:42 51°13.603 2°56.099 124.3 -999 39 4.6
2006-05-17 10:23:42 51°13.603 2°56.099 124.2 -999 37 4.6
2006-05-17 10:24:43 51°13.603 2°56.099 124.1 -999 63 4.7
2006-05-17 10:25:41 51°13.604 2°56.099 124.1 -999 77 4.6
2006-05-17 10:26:41 51°13.604 2°56.099 124.1 -999 96 4.6
2006-05-17 10:27:43 51°13.603 2°56.099 124.1 -999 52 4.6
2006-05-17 10:28:43 51°13.604 2°56.099 124.1 -999 116 4.6
2006-05-17 10:29:42 51°13.603 2°56.099 124 -999 77 4.6
2006-05-17 10:30:43 51°13.604 2°56.099 123.9 -999 67 4.6
2006-05-17 10:31:43 51°13.604 2°56.099 123.9 -999 41 4.6
2006-05-17 10:32:43 51°13.605 2°56.099 123.9 -999 85 4.7
2006-05-17 10:33:43 51°13.604 2°56.099 123.8 -999 52 4.7
2006-05-17 10:34:43 51°13.604 2°56.098 123.8 -999 61 4.9
2006-05-17 10:35:43 51°13.604 2°56.099 123.8 -999 72 4.7
2006-05-17 10:36:42 51°13.605 2°56.099 123.8 -999 67 4.7
2006-05-17 10:37:43 51°13.605 2°56.099 123.8 -999 61 4.7
2006-05-17 10:38:43 51°13.605 2°56.099 123.9 -999 58 4.7
2006-05-17 10:39:42 51°13.603 2°56.098 123.9 -999 160 4.7
2006-05-17 10:40:43 51°13.603 2°56.098 124 -999 128 4.7
2006-05-17 10:41:43 51°13.604 2°56.098 124.1 -999 47 4.7
2006-05-17 10:42:43 51°13.606 2°56.099 124.2 -999 47 4.7
2006-05-17 10:43:43 51°13.603 2°56.097 124.3 -999 42 4.7
2006-05-17 10:44:43 51°13.603 2°56.097 124.5 -999 20 4.8
2006-05-17 10:45:43 51°13.603 2°56.098 124.6 -999 68 4.8
2006-05-17 10:46:43 51°13.603 2°56.098 124.8 -999 19 4.7
2006-05-17 10:47:43 51°13.603 2°56.098 124.9 -999 47 4.8
2006-05-17 10:48:42 51°13.603 2°56.098 125 -999 32 4.8
2006-05-17 10:49:43 51°13.603 2°56.098 125.1 -999 55 4.8
2006-05-17 10:50:43 51°13.605 2°56.099 125.2 -999 32 4.8
2006-05-17 10:51:42 51°13.603 2°56.098 125.3 -999 132 4.8
2006-05-17 10:52:43 51°13.605 2°56.099 125.5 -999 73 4.8
2006-05-17 10:53:42 51°13.603 2°56.098 125.5 -999 36 4.8
2006-05-17 10:54:42 51°13.603 2°56.098 125.6 -999 81 4.8
2006-05-17 10:55:43 51°13.604 2°56.099 125.7 -999 55 4.8
2006-05-17 10:56:42 51°13.605 2°56.1 125.8 -999 177 4.8
2006-05-17 10:57:43 51°13.605 2°56.1 126 -999 45 4.8
2006-05-17 10:58:43 51°13.605 2°56.1 126.1 -999 52 4.8
2006-05-17 10:59:42 51°13.604 2°56.1 126.2 -999 63 4.8
2006-05-17 11:00:42 51°13.604 2°56.099 126.2 -999 41 4.9
2006-05-17 11:01:43 51°13.603 2°56.099 126.3 -999 59 4.9
2006-05-17 11:02:43 51°13.603 2°56.098 126.4 -999 352 4.9
2006-05-17 11:03:43 51°13.603 2°56.098 126.4 -999 44 4.9
2006-05-17 11:04:43 51°13.602 2°56.098 126.5 -999 44 4.9
2006-05-17 11:05:43 51°13.602 2°56.098 126.6 -999 33 4.9
2006-05-17 11:06:43 51°13.603 2°56.098 126.7 -999 61 4.9
2006-05-17 11:07:43 51°13.601 2°56.097 126.8 -999 33 4.9
2006-05-17 11:08:43 51°13.602 2°56.098 126.9 -999 94 4.9
2006-05-17 11:09:43 51°13.602 2°56.098 126.9 -999 36 5
2006-05-17 11:10:43 51°13.602 2°56.099 127 -999 37 5
2006-05-17 11:11:42 51°13.602 2°56.098 127 -999 40 5
2006-05-17 11:12:43 51°13.602 2°56.098 127 -999 64 5
2006-05-17 11:13:43 51°13.603 2°56.099 127 -999 41 5
2006-05-17 11:14:43 51°13.603 2°56.099 127 -999 31 5
2006-05-17 11:15:43 51°13.603 2°56.099 127 -999 31 5.1
2006-05-17 11:16:42 51°13.603 2°56.099 127 -999 35 5.2
2006-05-17 11:17:43 51°13.602 2°56.099 127 -999 50 5.2
2006-05-17 11:18:42 51°13.603 2°56.099 126.9 -999 11 5.1
2006-05-17 11:19:43 51°13.602 2°56.1 126.9 -999 5 -999
2006-05-17 11:20:43 51°13.602 2°56.101 126.9 -999 30 5.2
2006-05-17 11:21:43 51°13.602 2°56.101 126.5 -999 2 5
2006-05-17 11:22:43 51°13.601 2°56.101 121.9 -999 183 5.3
2006-05-17 11:23:43 51°13.6 2°56.1 111.5 0.1 185 5
2006-05-17 11:24:44 51°13.604 2°56.071 105.9 2.4 285 -999
2006-05-17 11:25:44 51°13.617 2°55.988 111.2 3.9 287 -999
2006-05-17 11:26:44 51°13.651 2°55.883 127.3 4.7 302 6.1
2006-05-17 11:27:44 51°13.695 2°55.781 127 4.3 305 -999
2006-05-17 11:28:43 51°13.712 2°55.759 83.6 1.2 69 -999
2006-05-17 11:29:44 51°13.71 2°55.743 47.1 0.4 254 -999
2006-05-17 11:30:42 51°13.737 2°55.737 340.6 2.9 336 10.4
2006-05-17 11:31:42 51°13.804 2°55.662 329.7 7 326 10.2
2006-05-17 11:32:43 51°13.929 2°55.558 342.5 9 337 10.3
2006-05-17 11:33:42 51°14.066 2°55.469 342.4 8.3 337 10.5
2006-05-17 11:34:43 51°14.171 2°55.389 335.5 6.3 331 10.5
2006-05-17 11:35:42 51°14.274 2°55.259 320.8 8.8 315 10.5
2006-05-17 11:36:42 51°14.359 2°55.063 303.2 9.1 298 10.3
2006-05-17 11:37:43 51°14.438 2°54.83 308.8 10.6 302 10.5
2006-05-17 11:38:42 51°14.524 2°54.554 298.3 12.8 292 10.8
2006-05-17 11:39:43 51°14.607 2°54.219 301.7 13.5 294 11
2006-05-17 11:40:42 51°14.682 2°53.889 289.4 13.6 282 10.9
2006-05-17 11:41:42 51°14.717 2°53.534 282.8 13.5 276 9.8
2006-05-17 11:42:43 51°14.723 2°53.169 276.2 13.6 270 9
2006-05-17 11:43:43 51°14.719 2°52.806 276.8 13.8 272 9.1
2006-05-17 11:44:42 51°14.724 2°52.449 269.8 13.8 264 9.4
2006-05-17 11:45:43 51°14.685 2°52.08 268.9 13.9 264 9.5
2006-05-17 11:46:43 51°14.659 2°51.712 266 14 261 9.8
2006-05-17 11:47:43 51°14.634 2°51.342 272.3 14.1 266 10.1
2006-05-17 11:48:42 51°14.603 2°50.978 265 14.1 260 10.3
2006-05-17 11:49:42 51°14.569 2°50.607 264.8 14.2 260 10.8
2006-05-17 11:50:43 51°14.513 2°50.235 259.8 14.2 255 11
2006-05-17 11:51:43 51°14.464 2°49.866 262.8 14.2 258 11.4
2006-05-17 11:52:42 51°14.394 2°49.512 253.4 14.2 249 11.5
2006-05-17 11:53:42 51°14.316 2°49.157 256.2 14.2 251 11.5
2006-05-17 11:54:42 51°14.231 2°48.807 251.1 14.2 247 11.5
2006-05-17 11:55:42 51°14.15 2°48.458 254 13.3 250 11.4
2006-05-17 11:56:43 51°14.08 2°48.212 245.9 8.2 243 11.6
2006-05-17 11:57:43 51°14.026 2°48.067 233.5 5 235 11.7
2006-05-17 11:58:43 51°14 2°48.003 249.5 0.8 246 11.7
2006-05-17 11:59:44 51°13.995 2°47.997 268.4 0.4 219 11.6
2006-05-17 12:00:43 51°13.989 2°47.987 274.7 0.5 232 11.8
2006-05-17 12:01:42 51°13.984 2°47.973 282.9 0.6 244 11.8
2006-05-17 12:02:41 51°13.979 2°47.957 291.5 0.8 246 11.7
2006-05-17 12:03:43 51°13.975 2°47.937 295.2 0.9 255 11.8
2006-05-17 12:04:44 51°13.972 2°47.914 296.4 0.9 259 11.8
2006-05-17 12:05:43 51°13.98 2°47.863 314.4 4.1 300 11.7
2006-05-17 12:06:43 51°14.047 2°47.797 3.6 5.1 352 11.9
2006-05-17 12:07:41 51°14.114 2°47.844 54.1 4.1 48 11.8
2006-05-17 12:08:42 51°14.142 2°47.925 71.5 3.1 70 11.9
2006-05-17 12:09:42 51°14.153 2°48.003 80.5 3 81 11.9
2006-05-17 12:10:42 51°14.155 2°48.083 88 3 90 11.9
2006-05-17 12:11:42 51°14.151 2°48.159 90.4 2.9 95 12
2006-05-17 12:12:43 51°14.148 2°48.239 88.6 2.9 89 11.9
2006-05-17 12:13:42 51°14.15 2°48.315 84.3 2.9 84 12
2006-05-17 12:14:43 51°14.158 2°48.392 79.6 2.9 78 12
2006-05-17 12:15:43 51°14.171 2°48.465 72.9 2.9 72 11.9
2006-05-17 12:16:42 51°14.19 2°48.532 66.3 2.9 63 12
2006-05-17 12:17:42 51°14.211 2°48.6 68.6 2.9 66 12
2006-05-17 12:18:43 51°14.231 2°48.673 71.9 3 70 12.2
2006-05-17 12:19:43 51°14.251 2°48.744 65.6 3 61 12.2
2006-05-17 12:20:43 51°14.277 2°48.813 63.4 3.1 59 12.2
2006-05-17 12:21:43 51°14.305 2°48.881 59.9 3.1 54 12.3
2006-05-17 12:22:43 51°14.338 2°48.943 53.4 3.1 44 12.3
2006-05-17 12:23:43 51°14.378 2°49 48.6 3.2 40 12.3
2006-05-17 12:24:43 51°14.415 2°49.058 54.9 3.2 47 12.4
2006-05-17 12:25:42 51°14.446 2°49.122 61.6 3.1 54 12.5
2006-05-17 12:26:43 51°14.477 2°49.191 59.9 3.2 53 12.5
2006-05-17 12:27:44 51°14.509 2°49.258 58 3.2 50 12.6
2006-05-17 12:28:42 51°14.543 2°49.32 55.8 3.2 48 12.6
2006-05-17 12:29:43 51°14.58 2°49.383 52.9 3.3 44 12.7
2006-05-17 12:30:41 51°14.618 2°49.441 50.4 3.3 42 12.8
2006-05-17 12:31:43 51°14.661 2°49.499 48.1 3.3 39 12.9
2006-05-17 12:32:43 51°14.701 2°49.557 54.4 3.3 46 13
2006-05-17 12:33:43 51°14.733 2°49.627 64.8 3.3 59 13
2006-05-17 12:34:42 51°14.759 2°49.702 68.8 3.3 62 13.1
2006-05-17 12:35:43 51°14.783 2°49.783 70.7 3.3 66 13.1
2006-05-17 12:36:43 51°14.803 2°49.866 75.8 3.4 71 13.1
2006-05-17 12:37:43 51°14.812 2°49.956 92.3 3.8 90 13.1
2006-05-17 12:38:43 51°14.798 2°50.06 112.5 4.2 111 12.9
2006-05-17 12:39:44 51°14.759 2°50.155 131.2 4.2 132 13
2006-05-17 12:40:42 51°14.703 2°50.211 160.4 4.2 164 12.8
2006-05-17 12:41:43 51°14.631 2°50.215 184.6 4.3 186 12.7
2006-05-17 12:42:43 51°14.569 2°50.208 174.6 3 179 12.4
2006-05-17 12:43:43 51°14.531 2°50.217 159.2 1.9 165 12.3
2006-05-17 12:44:42 51°14.509 2°50.231 147.8 1.2 153 12.2
2006-05-17 12:45:44 51°14.493 2°50.25 138.9 2.1 139 12.1
2006-05-17 12:46:43 51°14.429 2°50.266 193.8 4.9 196 11.7
2006-05-17 12:47:44 51°14.376 2°50.169 245.4 4.8 246 11.6
2006-05-17 12:48:43 51°14.361 2°50.054 266.1 4.6 264 11.7
2006-05-17 12:49:44 51°14.357 2°49.939 267.8 3.9 268 12
2006-05-17 12:50:43 51°14.357 2°49.847 271.3 3.2 272 12.3
2006-05-17 12:51:43 51°14.36 2°49.767 268.7 2.8 273 12.5
2006-05-17 12:52:44 51°14.356 2°49.695 257.4 2.7 261 12.6
2006-05-17 12:53:43 51°14.344 2°49.626 248.2 2.9 252 12.7
2006-05-17 12:54:42 51°14.325 2°49.559 240.8 2.9 244 12.8
2006-05-17 12:55:43 51°14.303 2°49.489 241.7 3 243 12.7
2006-05-17 12:56:42 51°14.28 2°49.422 237 2.8 238 12.7
2006-05-17 12:57:43 51°14.252 2°49.36 230 2.8 230 12.8
2006-05-17 12:58:42 51°14.223 2°49.304 228.3 2.8 230 12.7
2006-05-17 12:59:43 51°14.192 2°49.249 226.9 2.8 227 12.7
2006-05-17 13:00:42 51°14.162 2°49.194 229.9 2.8 232 12.6
2006-05-17 13:01:43 51°14.133 2°49.134 231.5 2.8 233 12.7
2006-05-17 13:02:42 51°14.104 2°49.076 231.6 2.9 231 12.6
2006-05-17 13:03:43 51°14.074 2°49.015 232.6 2.9 232 12.5
2006-05-17 13:04:43 51°14.046 2°48.954 234 2.8 236 12.7
2006-05-17 13:05:42 51°14.019 2°48.893 234.6 2.8 234 12.7
2006-05-17 13:06:42 51°13.992 2°48.833 234.2 2.8 236 12.7
2006-05-17 13:07:44 51°13.965 2°48.77 235 2.8 236 12.7
2006-05-17 13:08:43 51°13.938 2°48.71 233.8 2.8 234 12.6
2006-05-17 13:09:44 51°13.91 2°48.65 233 2.8 234 12.7
2006-05-17 13:10:44 51°13.882 2°48.592 233 2.7 231 12.7
2006-05-17 13:11:41 51°13.856 2°48.537 233.9 2.7 233 12.7
2006-05-17 13:12:44 51°13.828 2°48.474 234.1 2.8 233 12.8
2006-05-17 13:13:42 51°13.8 2°48.416 233.1 2.9 234 12.8
2006-05-17 13:14:42 51°13.771 2°48.356 232.3 2.9 231 12.8
2006-05-17 13:15:42 51°13.741 2°48.297 233.1 2.8 232 12.9
2006-05-17 13:16:44 51°13.713 2°48.234 235.9 2.8 237 12.8
2006-05-17 13:17:44 51°13.688 2°48.173 235.7 2.8 237 12.8
2006-05-17 13:18:42 51°13.662 2°48.116 234.8 2.7 235 12.9
2006-05-17 13:19:42 51°13.637 2°48.056 235.7 2.7 236 12.9
2006-05-17 13:20:42 51°13.611 2°47.996 234.8 2.8 234 12.9
2006-05-17 13:21:43 51°13.583 2°47.934 235.1 2.8 237 12.9
2006-05-17 13:22:44 51°13.556 2°47.871 235.6 2.9 235 12.8
2006-05-17 13:23:42 51°13.528 2°47.811 234 2.9 232 12.7
2006-05-17 13:24:44 51°13.497 2°47.748 234.7 2.9 234 12.7
2006-05-17 13:25:43 51°13.47 2°47.689 234.4 2.8 233 12.5
2006-05-17 13:26:43 51°13.44 2°47.631 233.8 2.8 229 12.5
2006-05-17 13:27:41 51°13.413 2°47.575 235.6 2.8 234 12.6
2006-05-17 13:28:43 51°13.386 2°47.511 239.2 2.8 237 12.6
2006-05-17 13:29:42 51°13.363 2°47.45 242.2 2.8 239 12.6
2006-05-17 13:30:43 51°13.341 2°47.383 244.1 2.8 242 12.6
2006-05-17 13:31:43 51°13.321 2°47.319 244.1 2.7 245 12.6
2006-05-17 13:32:42 51°13.301 2°47.256 243.6 2.7 245 12.8
2006-05-17 13:33:43 51°13.281 2°47.19 244.7 2.7 243 12.7
2006-05-17 13:34:43 51°13.261 2°47.126 244.5 2.7 247 12.8
2006-05-17 13:35:42 51°13.241 2°47.063 243.8 2.7 245 12.9
2006-05-17 13:36:42 51°13.222 2°47.001 243.1 2.6 243 12.9
2006-05-17 13:37:43 51°13.215 2°46.917 272.9 3.7 284 13
2006-05-17 13:38:42 51°13.26 2°46.834 311 4.6 327 13.3
2006-05-17 13:39:43 51°13.342 2°46.847 22.5 5.5 32 13.4
2006-05-17 13:40:44 51°13.393 2°46.971 81.2 5.5 74 13.5
2006-05-17 13:41:44 51°13.394 2°47.119 108.3 6 94 13.5
2006-05-17 13:42:43 51°13.389 2°47.265 100.9 5.1 86 13.3
2006-05-17 13:43:43 51°13.409 2°47.386 72 4.3 65 13.3
2006-05-17 13:44:42 51°13.441 2°47.471 59.4 3.5 56 13.3
2006-05-17 13:45:42 51°13.472 2°47.54 53.7 3.1 53 13.5
2006-05-17 13:46:44 51°13.502 2°47.603 54 2.8 53 13.5
2006-05-17 13:47:42 51°13.535 2°47.676 61.6 5.2 58 13.4
2006-05-17 13:48:44 51°13.573 2°47.809 79.6 5.1 70 13.4
2006-05-17 13:49:43 51°13.612 2°47.931 60 4.7 57 13.4
2006-05-17 13:50:44 51°13.656 2°48.018 43.8 3.7 47 13.5
2006-05-17 13:51:44 51°13.696 2°48.083 35 3.2 42 13.6
2006-05-17 13:52:42 51°13.732 2°48.135 30.7 2.9 40 13.7
2006-05-17 13:53:43 51°13.768 2°48.186 30.5 2.8 41 13.7
2006-05-17 13:54:44 51°13.802 2°48.236 33.3 2.6 42 13.8
2006-05-17 13:55:42 51°13.832 2°48.282 38.1 2.5 45 13.9
2006-05-17 13:56:44 51°13.862 2°48.332 44.4 2.5 47 13.8
2006-05-17 13:57:44 51°13.888 2°48.38 52.4 2.4 50 13.8
2006-05-17 13:58:44 51°13.913 2°48.429 58.7 2.3 50 13.8
2006-05-17 13:59:42 51°13.936 2°48.473 65.2 2.3 52 13.9
2006-05-17 14:00:44 51°13.959 2°48.52 71.9 2.2 49 13.9
2006-05-17 14:01:42 51°13.98 2°48.565 78.5 2.1 55 13.8
2006-05-17 14:02:43 51°14.001 2°48.611 84 2.1 52 13.9
2006-05-17 14:03:44 51°14.022 2°48.657 89.8 2 56 14
2006-05-17 14:04:44 51°14.042 2°48.705 94.2 2.3 62 14
2006-05-17 14:05:44 51°14.06 2°48.767 97.7 2.7 68 14.1
2006-05-17 14:06:44 51°14.078 2°48.841 95.7 3.2 71 14.1
2006-05-17 14:07:44 51°14.097 2°48.927 91.9 3.6 71 14.1
2006-05-17 14:08:42 51°14.118 2°49.019 86.8 3.9 69 13.9
2006-05-17 14:09:44 51°14.149 2°49.137 76.7 5.4 65 13.9
2006-05-17 14:10:42 51°14.188 2°49.292 77.7 8.8 70 13.8
2006-05-17 14:11:44 51°14.252 2°49.578 76.5 12.1 71 13.6
2006-05-17 14:12:44 51°14.325 2°49.913 76.5 14.2 71 13.2
2006-05-17 14:13:44 51°14.402 2°50.272 78.6 14.3 73 13
2006-05-17 14:14:43 51°14.475 2°50.628 78.2 14.3 72 12.8
2006-05-17 14:15:42 51°14.548 2°50.982 78.3 14.3 72 12.8
2006-05-17 14:16:43 51°14.629 2°51.348 77.7 14.4 71 12.7
2006-05-17 14:17:44 51°14.694 2°51.719 82.6 14.2 76 12.7
2006-05-17 14:18:42 51°14.753 2°52.074 84.1 14.4 78 12.4
2006-05-17 14:19:42 51°14.795 2°52.446 86.9 14.2 80 12.3
2006-05-17 14:20:44 51°14.837 2°52.831 90.8 14.1 85 12.2
2006-05-17 14:21:41 51°14.84 2°53.186 99 14 93 12.8
2006-05-17 14:22:44 51°14.801 2°53.565 109.2 13.7 101 13
2006-05-17 14:23:43 51°14.762 2°53.918 108.5 13.5 101 12.2
2006-05-17 14:24:43 51°14.708 2°54.267 118.1 13.7 108 12.4
2006-05-17 14:25:44 51°14.604 2°54.586 129.6 13.3 119 12.3
2006-05-17 14:26:43 51°14.477 2°54.858 143.8 12.9 133 12.3
2006-05-17 14:27:44 51°14.34 2°55.113 139 11.1 135 13.1
2006-05-17 14:28:43 51°14.241 2°55.295 135.7 7.7 133 13.2
2006-05-17 14:29:44 51°14.151 2°55.396 154.6 6 153 13.2
2006-05-17 14:30:42 51°14.066 2°55.458 158.9 5.8 155 13.2
2006-05-17 14:31:44 51°13.974 2°55.521 158.9 6 156 13.2
2006-05-17 14:32:44 51°13.875 2°55.591 158.6 6.8 156 13.1
2006-05-17 14:33:43 51°13.785 2°55.665 151 5.3 148 13.1
2006-05-17 14:34:44 51°13.734 2°55.744 131.7 3.7 128 13.2
2006-05-17 14:35:44 51°13.699 2°55.816 132.8 3.3 129 12.9
2006-05-17 14:36:44 51°13.662 2°55.895 127.6 3.9 124 11.9
2006-05-17 14:37:44 51°13.628 2°55.977 122.6 3.3 120 11.8
2006-05-17 14:38:42 51°13.61 2°56.045 113.3 2.5 109 11.5
2006-05-17 14:39:43 51°13.602 2°56.089 109.4 0.6 107 8.5
2006-05-17 14:40:44 51°13.602 2°56.096 110.6 0.1 111 8.3